createdAt,value
2018-10-17T00:00:20.848Z,29.29
2018-10-17T00:02:50.537Z,28.78
2018-10-17T00:05:20.044Z,28.98
2018-10-17T00:07:50.093Z,28.67
2018-10-17T00:10:19.861Z,28.52
2018-10-17T00:12:49.610Z,28.77
2018-10-17T00:15:19.257Z,29.02
2018-10-17T00:17:48.957Z,29.01
2018-10-17T00:20:18.633Z,28.87
2018-10-17T00:22:48.326Z,28.80
2018-10-17T00:25:18.054Z,28.86
2018-10-17T00:27:47.721Z,28.81
2018-10-17T00:30:17.386Z,28.91
2018-10-17T00:32:47.069Z,28.82
2018-10-17T00:35:16.842Z,28.68
2018-10-17T00:37:46.492Z,28.71
2018-10-17T00:40:16.478Z,28.73
2018-10-17T00:42:46.443Z,28.67
2018-10-17T00:45:16.145Z,28.61
2018-10-17T00:47:45.798Z,28.56
2018-10-17T00:50:15.643Z,28.63
2018-10-17T00:52:45.418Z,28.57
2018-10-17T00:55:15.432Z,28.48
2018-10-17T00:57:45.075Z,28.55
2018-10-17T01:00:15.042Z,28.37
2018-10-17T01:02:45.106Z,28.36
2018-10-17T01:05:14.840Z,28.44
2018-10-17T01:07:44.417Z,28.37
2018-10-17T01:10:14.149Z,28.28
2018-10-17T01:12:43.734Z,28.34
2018-10-17T01:15:13.401Z,28.17
2018-10-17T01:17:43.214Z,28.22
2018-10-17T01:20:12.853Z,28.18
2018-10-17T01:22:42.525Z,28.18
2018-10-17T01:25:12.256Z,28.07
2018-10-17T01:27:41.988Z,28.01
2018-10-17T01:30:11.649Z,28.00
2018-10-17T01:32:41.324Z,27.98
2018-10-17T01:35:11.062Z,27.89
2018-10-17T01:37:40.684Z,27.90
2018-10-17T01:40:10.381Z,27.81
2018-10-17T01:42:40.640Z,27.91
2018-10-17T01:45:10.569Z,27.86
2018-10-17T01:47:40.189Z,27.89
2018-10-17T01:50:09.989Z,27.80
2018-10-17T01:52:40.276Z,27.80
2018-10-17T01:55:10.028Z,27.82
2018-10-17T01:57:39.702Z,27.76
2018-10-17T02:00:09.388Z,27.64
2018-10-17T02:02:39.017Z,27.61
2018-10-17T02:05:08.840Z,27.61
2018-10-17T02:07:38.603Z,27.55
2018-10-17T02:10:08.378Z,27.60
2018-10-17T02:12:38.018Z,27.53
2018-10-17T02:15:07.773Z,27.52
2018-10-17T02:17:37.465Z,27.47
2018-10-17T02:20:07.006Z,27.50
2018-10-17T02:22:37.097Z,27.42
2018-10-17T02:25:07.519Z,27.40
2018-10-17T02:27:37.695Z,27.36
2018-10-17T02:30:07.818Z,27.41
2018-10-17T02:32:37.414Z,27.36
2018-10-17T02:35:12.385Z,27.31
2018-10-17T02:37:42.103Z,27.20
2018-10-17T02:40:12.025Z,27.15
2018-10-17T02:42:41.846Z,27.17
2018-10-17T02:45:13.316Z,27.23
2018-10-17T02:47:42.946Z,27.22
2018-10-17T02:50:13.252Z,27.16
2018-10-17T02:52:43.441Z,27.08
2018-10-17T02:55:13.196Z,27.09
2018-10-17T02:57:42.902Z,27.06
2018-10-17T03:00:12.646Z,27.05
2018-10-17T03:02:42.390Z,26.87
2018-10-17T03:05:12.269Z,26.93
2018-10-17T03:07:41.814Z,26.91
2018-10-17T03:10:11.546Z,26.86
2018-10-17T03:12:41.418Z,26.72
2018-10-17T03:15:11.122Z,26.99
2018-10-17T03:17:40.745Z,27.08
2018-10-17T03:20:11.050Z,26.87
2018-10-17T03:22:40.838Z,27.06
2018-10-17T03:25:10.901Z,26.82
2018-10-17T03:27:40.579Z,26.75
2018-10-17T03:30:10.586Z,26.61
2018-10-17T03:32:40.697Z,26.70
2018-10-17T03:35:10.418Z,26.70
2018-10-17T03:37:40.114Z,26.62
2018-10-17T03:40:10.231Z,26.55
2018-10-17T03:42:40.462Z,26.54
2018-10-17T03:45:10.175Z,26.54
2018-10-17T03:47:39.778Z,26.63
2018-10-17T03:50:09.496Z,26.54
2018-10-17T03:52:39.185Z,26.60
2018-10-17T03:55:09.137Z,26.56
2018-10-17T03:57:38.662Z,26.30
2018-10-17T04:00:08.750Z,26.51
2018-10-17T04:02:38.758Z,26.49
2018-10-17T04:05:08.754Z,26.52
2018-10-17T04:07:38.310Z,26.39
2018-10-17T04:10:08.063Z,26.30
2018-10-17T04:12:38.114Z,26.25
2018-10-17T04:15:07.722Z,26.36
2018-10-17T04:17:37.408Z,26.38
2018-10-17T04:20:07.357Z,26.49
2018-10-17T04:22:37.187Z,26.40
2018-10-17T04:25:07.218Z,26.36
2018-10-17T04:27:36.954Z,26.29
2018-10-17T04:30:08.338Z,26.31
2018-10-17T04:32:38.107Z,26.32
2018-10-17T04:35:07.885Z,26.33
2018-10-17T04:37:37.530Z,26.28
2018-10-17T04:40:07.369Z,26.25
2018-10-17T04:42:37.006Z,26.14
2018-10-17T04:45:08.593Z,26.25
2018-10-17T04:47:38.958Z,26.18
2018-10-17T04:50:09.970Z,26.22
2018-10-17T04:52:40.151Z,26.10
2018-10-17T04:55:11.143Z,26.11
2018-10-17T04:57:41.066Z,26.11
2018-10-17T05:00:12.890Z,26.18
2018-10-17T05:02:43.685Z,26.10
2018-10-17T05:05:13.947Z,26.18
2018-10-17T05:07:43.595Z,26.04
2018-10-17T05:10:13.449Z,25.96
2018-10-17T05:12:43.152Z,26.02
2018-10-17T05:15:12.904Z,26.11
2018-10-17T05:17:42.579Z,26.07
2018-10-17T05:20:12.258Z,26.11
2018-10-17T05:22:42.065Z,26.08
2018-10-17T05:25:12.195Z,26.07
2018-10-17T05:27:41.825Z,25.94
2018-10-17T05:30:11.538Z,25.85
2018-10-17T05:32:41.206Z,25.81
2018-10-17T05:35:10.969Z,25.86
2018-10-17T05:37:41.120Z,25.85
2018-10-17T05:40:10.744Z,25.89
2018-10-17T05:42:40.486Z,25.78
2018-10-17T05:45:10.235Z,25.88
2018-10-17T05:47:40.006Z,25.87
2018-10-17T05:50:10.130Z,25.85
2018-10-17T05:52:39.834Z,25.83
2018-10-17T05:55:09.515Z,25.86
2018-10-17T05:57:39.173Z,25.79
2018-10-17T06:00:09.355Z,25.78
2018-10-17T06:02:39.437Z,25.78
2018-10-17T06:05:10.497Z,25.77
2018-10-17T06:07:40.094Z,25.78
2018-10-17T06:10:10.441Z,25.77
2018-10-17T06:12:40.202Z,25.67
2018-10-17T06:15:10.034Z,25.66
2018-10-17T06:17:39.867Z,25.69
2018-10-17T06:20:09.594Z,25.64
2018-10-17T06:22:39.266Z,25.66
2018-10-17T06:25:09.590Z,25.60
2018-10-17T06:27:39.190Z,25.66
2018-10-17T06:30:10.114Z,25.62
2018-10-17T06:32:40.299Z,25.62
2018-10-17T06:35:10.305Z,25.65
2018-10-17T06:37:39.898Z,25.54
2018-10-17T06:40:10.449Z,25.60
2018-10-17T06:42:40.183Z,25.60
2018-10-17T06:45:09.849Z,25.52
2018-10-17T06:47:39.626Z,25.51
2018-10-17T06:50:09.874Z,25.53
2018-10-17T06:52:39.683Z,25.54
2018-10-17T06:55:09.518Z,25.47
2018-10-17T06:57:39.285Z,25.52
2018-10-17T07:00:09.855Z,25.43
2018-10-17T07:02:39.823Z,25.46
2018-10-17T07:05:10.589Z,25.47
2018-10-17T07:07:40.578Z,25.41
2018-10-17T07:10:10.297Z,25.35
2018-10-17T07:12:40.184Z,25.40
2018-10-17T07:15:09.964Z,25.41
2018-10-17T07:17:39.842Z,25.28
2018-10-17T07:20:10.189Z,25.34
2018-10-17T07:22:39.904Z,25.37
2018-10-17T07:25:09.590Z,25.35
2018-10-17T07:27:39.181Z,25.33
2018-10-17T07:30:09.643Z,25.31
2018-10-17T07:32:39.273Z,25.30
2018-10-17T07:35:09.870Z,25.24
2018-10-17T07:37:39.510Z,25.21
2018-10-17T07:40:09.153Z,25.27
2018-10-17T07:42:39.138Z,25.22
2018-10-17T07:45:09.002Z,25.21
2018-10-17T07:47:39.481Z,25.20
2018-10-17T07:50:09.997Z,25.19
2018-10-17T07:52:39.868Z,25.18
2018-10-17T07:55:11.523Z,25.13
2018-10-17T07:57:41.306Z,25.15
2018-10-17T08:00:13.013Z,25.15
2018-10-17T08:02:42.773Z,25.18
2018-10-17T08:05:12.502Z,25.16
2018-10-17T08:07:42.557Z,25.16
2018-10-17T08:10:12.511Z,25.09
2018-10-17T08:12:42.183Z,25.11
2018-10-17T08:15:12.274Z,25.01
2018-10-17T08:17:42.114Z,25.04
2018-10-17T08:20:12.837Z,25.00
2018-10-17T08:22:42.690Z,24.96
2018-10-17T08:25:13.543Z,24.96
2018-10-17T08:27:43.711Z,24.98
2018-10-17T08:30:13.591Z,25.02
2018-10-17T08:32:43.356Z,24.98
2018-10-17T08:35:13.105Z,24.95
2018-10-17T08:37:43.216Z,24.96
2018-10-17T08:40:12.459Z,24.95
2018-10-17T08:42:42.517Z,24.96
2018-10-17T08:45:12.257Z,24.92
2018-10-17T08:47:41.846Z,24.90
2018-10-17T08:50:11.590Z,24.89
2018-10-17T08:52:41.211Z,24.93
2018-10-17T08:55:10.910Z,24.93
2018-10-17T08:57:40.662Z,24.92
2018-10-17T09:00:10.614Z,24.88
2018-10-17T09:02:40.301Z,24.87
2018-10-17T09:05:09.941Z,24.83
2018-10-17T09:07:39.691Z,24.84
2018-10-17T09:10:09.390Z,24.81
2018-10-17T09:12:39.058Z,24.86
2018-10-17T09:15:09.594Z,24.83
2018-10-17T09:17:39.337Z,24.81
2018-10-17T09:20:09.856Z,24.78
2018-10-17T09:22:39.502Z,24.76
2018-10-17T09:25:09.345Z,24.79
2018-10-17T09:27:38.994Z,24.71
2018-10-17T09:30:10.178Z,24.76
2018-10-17T09:32:40.058Z,24.75
2018-10-17T09:35:11.022Z,24.73
2018-10-17T09:37:40.754Z,24.71
2018-10-17T09:40:11.514Z,24.73
2018-10-17T09:42:42.089Z,24.69
2018-10-17T09:45:12.100Z,24.73
2018-10-17T09:47:41.781Z,24.68
2018-10-17T09:50:11.691Z,24.68
2018-10-17T09:52:41.478Z,24.62
2018-10-17T09:55:11.165Z,24.64
2018-10-17T09:57:41.251Z,24.66
2018-10-17T10:00:16.039Z,24.66
2018-10-17T10:02:45.655Z,24.62
2018-10-17T10:05:15.556Z,24.63
2018-10-17T10:07:45.079Z,24.63
2018-10-17T10:10:15.071Z,24.62
2018-10-17T10:12:44.585Z,24.62
2018-10-17T10:15:14.289Z,24.61
2018-10-17T10:17:44.338Z,24.61
2018-10-17T10:20:14.013Z,24.59
2018-10-17T10:22:43.725Z,24.57
2018-10-17T10:25:13.468Z,24.56
2018-10-17T10:27:43.181Z,24.55
2018-10-17T10:30:12.924Z,24.49
2018-10-17T10:32:42.632Z,24.48
2018-10-17T10:35:12.369Z,24.47
2018-10-17T10:37:42.866Z,24.49
2018-10-17T10:40:12.965Z,24.47
2018-10-17T10:42:42.717Z,24.51
2018-10-17T10:45:12.586Z,24.47
2018-10-17T10:47:42.163Z,24.47
2018-10-17T10:50:11.939Z,24.45
2018-10-17T10:52:42.168Z,24.44
2018-10-17T10:55:11.918Z,24.43
2018-10-17T10:57:41.508Z,24.42
2018-10-17T11:00:11.296Z,24.42
2018-10-17T11:02:40.959Z,24.42
2018-10-17T11:05:10.967Z,24.42
2018-10-17T11:07:40.730Z,24.42
2018-10-17T11:10:10.657Z,24.35
2018-10-17T11:12:40.338Z,24.36
2018-10-17T11:15:10.709Z,24.40
2018-10-17T11:17:40.334Z,24.38
2018-10-17T11:20:09.978Z,24.38
2018-10-17T11:22:39.691Z,24.38
2018-10-17T11:25:09.749Z,24.33
2018-10-17T11:27:39.408Z,24.37
2018-10-17T11:30:11.284Z,24.36
2018-10-17T11:32:41.458Z,24.38
2018-10-17T11:35:11.574Z,24.34
2018-10-17T11:37:41.222Z,24.31
2018-10-17T11:40:10.887Z,24.31
2018-10-17T11:42:40.621Z,24.31
2018-10-17T11:45:10.363Z,24.32
2018-10-17T11:47:40.090Z,24.31
2018-10-17T11:50:10.707Z,24.31
2018-10-17T11:52:40.494Z,24.28
2018-10-17T11:55:10.495Z,24.29
2018-10-17T11:57:40.474Z,24.30
2018-10-17T12:00:12.012Z,24.27
2018-10-17T12:02:41.853Z,24.25
2018-10-17T12:05:13.704Z,24.26
2018-10-17T12:07:43.390Z,24.24
2018-10-17T12:10:13.171Z,24.26
2018-10-17T12:12:43.249Z,24.22
2018-10-17T12:15:14.196Z,24.21
2018-10-17T12:17:43.942Z,24.21
2018-10-17T12:20:14.858Z,24.23
2018-10-17T12:22:45.301Z,24.20
2018-10-17T12:25:15.326Z,24.23
2018-10-17T12:27:44.999Z,24.22
2018-10-17T12:30:15.654Z,24.21
2018-10-17T12:32:45.230Z,24.18
2018-10-17T12:35:15.187Z,24.13
2018-10-17T12:37:44.834Z,24.13
2018-10-17T12:40:14.584Z,24.14
2018-10-17T12:42:44.266Z,24.14
2018-10-17T12:45:14.012Z,24.09
2018-10-17T12:47:43.946Z,24.09
2018-10-17T12:50:13.872Z,24.06
2018-10-17T12:52:43.689Z,24.07
2018-10-17T12:55:13.449Z,24.04
2018-10-17T12:57:43.151Z,23.96
2018-10-17T13:00:13.053Z,24.01
2018-10-17T13:02:42.866Z,23.99
2018-10-17T13:05:12.663Z,24.03
2018-10-17T13:07:42.373Z,23.99
2018-10-17T13:10:12.563Z,24.01
2018-10-17T13:12:42.407Z,24.01
2018-10-17T13:15:14.258Z,24.02
2018-10-17T13:17:45.302Z,24.02
2018-10-17T13:20:15.307Z,24.01
2018-10-17T13:22:44.958Z,24.02
2018-10-17T13:25:15.093Z,23.91
2018-10-17T13:27:44.839Z,23.93
2018-10-17T13:30:14.666Z,23.91
2018-10-17T13:32:44.372Z,23.95
2018-10-17T13:35:14.122Z,23.95
2018-10-17T13:37:43.812Z,23.93
2018-10-17T13:40:13.663Z,23.95
2018-10-17T13:42:43.442Z,23.94
2018-10-17T13:45:13.122Z,23.92
2018-10-17T13:47:43.299Z,23.88
2018-10-17T13:50:13.052Z,23.84
2018-10-17T13:52:43.169Z,23.86
2018-10-17T13:55:12.936Z,23.91
2018-10-17T13:57:42.526Z,23.87
2018-10-17T14:00:13.379Z,23.88
2018-10-17T14:02:43.890Z,23.83
2018-10-17T14:05:13.677Z,23.81
2018-10-17T14:07:43.382Z,23.81
2018-10-17T14:10:13.126Z,23.77
2018-10-17T14:12:43.197Z,23.81
2018-10-17T14:15:12.893Z,23.79
2018-10-17T14:17:42.858Z,23.79
2018-10-17T14:20:12.622Z,23.79
2018-10-17T14:22:42.450Z,23.73
2018-10-17T14:25:12.307Z,23.78
2018-10-17T14:27:42.458Z,23.76
2018-10-17T14:30:13.593Z,23.76
2018-10-17T14:32:43.553Z,23.76
2018-10-17T14:35:13.505Z,23.72
2018-10-17T14:37:43.409Z,23.70
2018-10-17T14:40:13.362Z,23.73
2018-10-17T14:42:43.166Z,23.71
2018-10-17T14:45:13.152Z,23.71
2018-10-17T14:47:43.072Z,23.69
2018-10-17T14:50:12.803Z,23.68
2018-10-17T14:52:42.634Z,23.64
2018-10-17T14:55:12.287Z,23.64
2018-10-17T14:57:42.334Z,23.64
2018-10-17T15:00:14.582Z,23.64
2018-10-17T15:02:44.754Z,23.61
2018-10-17T15:05:14.644Z,23.63
2018-10-17T15:07:44.450Z,23.63
2018-10-17T15:10:15.310Z,23.64
2018-10-17T15:12:45.014Z,23.63
2018-10-17T15:15:14.857Z,23.63
2018-10-17T15:17:44.753Z,23.63
2018-10-17T15:20:15.282Z,23.58
2018-10-17T15:22:45.342Z,23.56
2018-10-17T15:25:14.910Z,23.57
2018-10-17T15:27:44.582Z,23.61
2018-10-17T15:30:14.429Z,23.60
2018-10-17T15:32:43.998Z,23.62
2018-10-17T15:35:13.702Z,23.51
2018-10-17T15:37:43.445Z,23.52
2018-10-17T15:40:13.054Z,23.55
2018-10-17T15:42:42.798Z,23.53
2018-10-17T16:14:49.602Z,23.52
2018-10-17T16:17:19.323Z,23.53
2018-10-17T16:19:48.994Z,23.54
2018-10-17T16:22:18.667Z,23.54
2018-10-17T16:24:48.445Z,23.51
2018-10-17T16:27:18.147Z,23.55
2018-10-17T16:29:48.197Z,23.53
2018-10-17T16:32:17.981Z,23.54
2018-10-17T16:34:47.481Z,23.46
2018-10-17T16:37:17.120Z,23.46
2018-10-17T16:39:46.807Z,23.42
2018-10-17T16:42:16.658Z,23.40
2018-10-17T16:44:46.226Z,23.47
2018-10-17T16:47:15.897Z,23.45
2018-10-17T16:49:45.678Z,23.40
2018-10-17T16:52:15.424Z,23.43
2018-10-17T16:54:45.294Z,23.37
2018-10-17T16:57:15.145Z,23.45
2018-10-17T16:59:44.893Z,23.45
2018-10-17T17:02:14.782Z,23.40
2018-10-17T17:04:44.441Z,23.40
2018-10-17T17:07:14.209Z,23.42
2018-10-17T17:09:44.320Z,23.42
2018-10-17T17:12:17.688Z,23.45
2018-10-17T17:14:48.738Z,23.49
2018-10-17T17:17:18.662Z,23.49
2018-10-17T17:19:48.458Z,23.53
2018-10-17T17:22:18.214Z,23.62
2018-10-17T17:24:47.882Z,23.71
2018-10-17T17:27:18.666Z,23.78
2018-10-17T17:29:48.951Z,23.81
2018-10-17T17:32:19.081Z,23.89
2018-10-17T17:34:49.553Z,24.01
2018-10-17T17:37:19.697Z,24.09
2018-10-17T17:39:50.439Z,24.13
2018-10-17T17:42:20.525Z,24.28
2018-10-17T17:44:51.044Z,24.39
2018-10-17T17:47:21.030Z,24.54
2018-10-17T17:49:51.524Z,24.69
2018-10-17T17:52:21.537Z,24.82
2018-10-17T17:54:51.394Z,25.00
2018-10-17T17:57:21.809Z,25.14
2018-10-17T17:59:58.274Z,25.30
2018-10-17T18:02:28.365Z,25.37
2018-10-17T18:04:59.490Z,25.59
2018-10-17T18:07:29.414Z,25.72
2018-10-17T18:09:59.213Z,25.96
2018-10-17T18:12:29.355Z,26.08
2018-10-17T18:14:59.402Z,26.22
2018-10-17T18:17:29.784Z,26.38
2018-10-17T18:19:59.613Z,26.55
2018-10-17T18:22:29.691Z,26.73
2018-10-17T18:25:00.172Z,26.94
2018-10-17T18:27:29.873Z,27.00
2018-10-17T18:29:59.448Z,27.17
2018-10-17T18:32:29.206Z,27.20
2018-10-17T18:34:59.085Z,27.44
2018-10-17T18:37:28.786Z,27.64
2018-10-17T18:39:58.432Z,27.74
2018-10-17T18:42:28.161Z,27.94
2018-10-17T18:44:58.034Z,28.07
2018-10-17T18:47:28.079Z,28.19
2018-10-17T18:49:58.350Z,28.24
2018-10-17T18:52:28.592Z,28.43
2018-10-17T18:54:58.478Z,28.53
2018-10-17T18:57:29.426Z,28.68
2018-10-17T18:59:59.201Z,28.71
2018-10-17T19:02:28.990Z,29.15
2018-10-17T19:04:58.873Z,29.09
2018-10-17T19:07:28.793Z,29.21
2018-10-17T19:09:58.859Z,29.40
2018-10-17T19:12:28.755Z,29.46
2018-10-17T19:14:59.257Z,29.47
2018-10-17T19:17:30.455Z,29.70
2018-10-17T19:20:02.783Z,29.86
2018-10-17T19:22:33.821Z,29.94
2018-10-17T19:25:06.082Z,29.63
2018-10-17T19:27:37.267Z,29.97
2018-10-17T19:30:08.809Z,29.96
2018-10-17T19:32:38.974Z,30.09
2018-10-17T19:35:10.417Z,30.06
2018-10-17T19:37:42.098Z,30.23
2018-10-17T19:40:12.408Z,30.19
2018-10-17T19:42:42.124Z,30.31
2018-10-17T19:45:12.541Z,30.40
2018-10-17T19:47:42.447Z,30.13
2018-10-17T19:50:12.162Z,30.32
2018-10-17T19:52:41.865Z,30.34
2018-10-17T19:55:12.346Z,30.54
2018-10-17T19:57:42.051Z,30.59
2018-10-17T20:00:13.991Z,30.36
2018-10-17T20:02:44.578Z,30.40
2018-10-17T20:05:14.938Z,30.38
2018-10-17T20:07:45.230Z,30.35
2018-10-17T20:10:15.631Z,30.75
2018-10-17T20:12:45.836Z,30.46
2018-10-17T20:15:15.994Z,30.49
2018-10-17T20:17:46.031Z,30.71
2018-10-17T20:20:16.142Z,30.49
2018-10-17T20:22:46.779Z,30.54
2018-10-17T20:25:16.615Z,30.55
2018-10-17T20:27:46.895Z,30.69
2018-10-17T20:30:16.875Z,30.58
2018-10-17T20:32:47.001Z,30.65
2018-10-17T20:35:16.819Z,30.47
2018-10-17T20:37:46.517Z,30.54
2018-10-17T20:40:16.507Z,30.42
2018-10-17T20:42:46.109Z,30.48
2018-10-17T20:45:15.834Z,30.46
2018-10-17T20:47:45.486Z,30.59
2018-10-17T20:50:15.524Z,30.37
2018-10-17T20:52:45.150Z,30.39
2018-10-17T20:55:14.818Z,30.74
2018-10-17T20:57:44.507Z,30.49
2018-10-17T21:00:14.437Z,30.32
2018-10-17T21:02:44.147Z,30.53
2018-10-17T21:05:13.787Z,30.39
2018-10-17T21:07:43.518Z,30.70
2018-10-17T21:10:13.167Z,30.70
2018-10-17T21:12:43.237Z,30.58
2018-10-17T21:15:12.912Z,30.27
2018-10-17T21:17:42.670Z,30.52
2018-10-17T21:20:12.319Z,30.34
2018-10-17T21:22:42.035Z,30.37
2018-10-17T21:25:11.757Z,30.37
2018-10-17T21:27:41.400Z,30.46
2018-10-17T21:30:11.430Z,30.35
2018-10-17T21:32:41.090Z,30.12
2018-10-17T21:35:10.763Z,30.42
2018-10-17T21:37:40.537Z,30.33
2018-10-17T21:40:10.506Z,30.26
2018-10-17T21:42:40.739Z,30.38
2018-10-17T21:45:10.414Z,30.17
2018-10-17T21:47:40.117Z,30.14
2018-10-17T21:50:09.906Z,30.31
2018-10-17T21:52:39.553Z,29.99
2018-10-17T21:55:09.238Z,29.75
2018-10-17T21:57:38.976Z,30.06
2018-10-17T22:00:10.046Z,29.89
2018-10-17T22:02:40.197Z,29.80
2018-10-17T22:05:10.894Z,29.88
2018-10-17T22:07:40.612Z,29.91
2018-10-17T22:10:10.494Z,29.94
2018-10-17T22:12:40.466Z,29.91
2018-10-17T22:15:10.856Z,29.97
2018-10-17T22:17:40.542Z,29.62
2018-10-17T22:20:10.315Z,29.76
2018-10-17T22:22:39.966Z,29.93
2018-10-17T22:25:09.729Z,29.77
2018-10-17T22:27:39.230Z,29.74
2018-10-17T22:30:08.937Z,29.68
2018-10-17T22:32:38.581Z,29.54
2018-10-17T22:35:08.151Z,29.75
2018-10-17T22:37:38.126Z,29.76
2018-10-17T22:40:07.630Z,29.65
2018-10-17T22:42:37.193Z,29.59
2018-10-17T22:45:07.062Z,29.43
2018-10-17T22:47:36.734Z,29.27
2018-10-17T22:50:07.313Z,29.38
2018-10-17T22:52:36.962Z,29.51
2018-10-17T22:55:06.685Z,29.50
2018-10-17T22:57:36.345Z,29.16
2018-10-17T23:00:07.402Z,29.15
2018-10-17T23:02:37.092Z,29.28
2018-10-17T23:05:06.820Z,29.24
2018-10-17T23:07:36.445Z,29.23
2018-10-17T23:10:06.144Z,29.12
2018-10-17T23:12:36.024Z,29.14
2018-10-17T23:15:09.393Z,29.21
2018-10-17T23:17:39.002Z,28.85
2018-10-17T23:20:08.735Z,28.66
2018-10-17T23:22:38.885Z,28.86
2018-10-17T23:25:09.726Z,28.67
2018-10-17T23:27:39.845Z,28.95
2018-10-17T23:30:10.514Z,28.98
2018-10-17T23:32:40.613Z,28.83
2018-10-17T23:35:10.833Z,28.82
2018-10-17T23:37:40.477Z,28.45
2018-10-17T23:40:10.374Z,28.60
2018-10-17T23:42:40.141Z,28.61
2018-10-17T23:45:09.953Z,28.52
2018-10-17T23:47:39.653Z,28.61
2018-10-17T23:50:09.483Z,28.44
2018-10-17T23:52:39.278Z,28.41
2018-10-17T23:55:09.498Z,28.48
2018-10-17T23:57:39.666Z,28.40
